Time;durP1;ratioP1;P1;durP2;ratioP2;P2;SDS_P1;SDS_P2;PMS_P1;PMS_P2;Temp;Humidity;BMP_temperature;BMP_pressure;BME280_temperature;BME280_humidity;BME280_pressure;Samples;Min_cycle;Max_cycle;Signal;HPM_P1;HPM_P2
2021/04/18 00:01:45;;;;;;;1.23;0.87;;;;;;;;;;5004401;28;20593;-72
2021/04/18 00:04:11;;;;;;;1.90;1.37;;;;;;;;;;5014581;28;20505;-72
2021/04/18 00:06:37;;;;;;;6.13;1.70;;;;;;;;;;5014907;28;20409;-71
2021/04/18 00:09:04;;;;;;;1.77;1.50;;;;;;;;;;5009755;28;20472;-70
2021/04/18 00:11:31;;;;;;;2.10;0.90;;;;;;;;;;4992634;28;20437;-71
2021/04/18 00:13:57;;;;;;;10.63;1.30;;;;;;;;;;4994543;28;20507;-71
2021/04/18 00:16:23;;;;;;;2.00;1.50;;;;;;;;;;4994817;28;20437;-71
2021/04/18 00:18:49;;;;;;;2.17;1.20;;;;;;;;;;4994944;28;20483;-70
2021/04/18 00:21:15;;;;;;;2.33;1.50;;;;;;;;;;4993607;28;20443;-70
2021/04/18 00:23:43;;;;;;;1.30;1.03;;;;;;;;;;4994566;28;20481;-71
2021/04/18 00:26:09;;;;;;;2.03;1.30;;;;;;;;;;4994547;28;20777;-69
2021/04/18 00:28:35;;;;;;;1.13;0.90;;;;;;;;;;4994452;28;20509;-70
2021/04/18 00:31:01;;;;;;;2.80;1.17;;;;;;;;;;4993736;28;20465;-71
2021/04/18 00:33:27;;;;;;;0.80;0.60;;;;;;;;;;4993807;28;20405;-71
2021/04/18 00:35:53;;;;;;;2.33;0.90;;;;;;;;;;4994415;28;20402;-71
2021/04/18 00:38:19;;;;;;;1.90;1.10;;;;;;;;;;4994359;28;20431;-71
2021/04/18 00:40:45;;;;;;;4.50;2.07;;;;;;;;;;4996139;28;20463;-70
2021/04/18 00:43:12;;;;;;;5.00;2.10;;;;;;;;;;5007311;28;20427;-70
2021/04/18 00:45:38;;;;;;;2.80;1.60;;;;;;;;;;5013773;28;20475;-69
2021/04/18 00:48:04;;;;;;;1.80;1.10;;;;;;;;;;5014056;28;20415;-70
2021/04/18 00:50:31;;;;;;;1.73;1.27;;;;;;;;;;5002875;28;20517;-72
2021/04/18 00:52:58;;;;;;;1.57;0.73;;;;;;;;;;4993727;28;20518;-70
2021/04/18 00:55:25;;;;;;;1.37;1.20;;;;;;;;;;4994408;28;20541;-70
2021/04/18 00:57:52;;;;;;;0.90;0.80;;;;;;;;;;4994038;28;20451;-71
2021/04/18 01:00:18;;;;;;;1.73;1.27;;;;;;;;;;4993984;28;20539;-69
2021/04/18 01:02:44;;;;;;;2.70;1.37;;;;;;;;;;4993109;28;20460;-70
2021/04/18 01:05:10;;;;;;;2.70;1.27;;;;;;;;;;4993819;28;20460;-70
2021/04/18 01:07:36;;;;;;;0.90;0.77;;;;;;;;;;4993527;28;20413;-69
2021/04/18 01:10:04;;;;;;;3.13;1.70;;;;;;;;;;5003433;28;20413;-71
2021/04/18 01:12:32;;;;;;;0.97;0.87;;;;;;;;;;4993213;28;20433;-70
2021/04/18 01:14:58;;;;;;;1.10;0.90;;;;;;;;;;4993347;28;20903;-69
2021/04/18 01:17:25;;;;;;;1.20;0.73;;;;;;;;;;4993710;28;20508;-70
2021/04/18 01:19:52;;;;;;;0.97;0.83;;;;;;;;;;4993551;28;20472;-71
2021/04/18 01:22:17;;;;;;;2.70;1.37;;;;;;;;;;4992762;28;20436;-70
2021/04/18 01:24:44;;;;;;;2.40;1.00;;;;;;;;;;4993366;28;20458;-71
2021/04/18 01:27:11;;;;;;;1.97;0.90;;;;;;;;;;4993480;28;20383;-72
2021/04/18 01:29:37;;;;;;;1.43;1.27;;;;;;;;;;4993938;28;20748;-71
2021/04/18 01:32:03;;;;;;;1.10;1.00;;;;;;;;;;4993052;28;20437;-70
2021/04/18 01:34:31;;;;;;;2.30;1.33;;;;;;;;;;4993792;28;20477;-70
2021/04/18 01:36:57;;;;;;;3.37;2.87;;;;;;;;;;4995087;28;20417;-69
2021/04/18 01:39:23;;;;;;;4.20;1.93;;;;;;;;;;4993695;28;20948;-68
2021/04/18 01:41:50;;;;;;;1.10;1.00;;;;;;;;;;4992941;28;20449;-71
2021/04/18 01:44:17;;;;;;;0.97;0.70;;;;;;;;;;4993193;28;21078;-70
2021/04/18 01:46:44;;;;;;;2.10;2.00;;;;;;;;;;4993238;28;20476;-71
2021/04/18 01:49:10;;;;;;;1.47;0.90;;;;;;;;;;4992954;28;20421;-74
2021/04/18 01:51:36;;;;;;;1.20;1.10;;;;;;;;;;4992760;28;20424;-71
2021/04/18 01:54:02;;;;;;;1.50;1.40;;;;;;;;;;4992772;28;20423;-72
2021/04/18 01:56:29;;;;;;;1.13;1.00;;;;;;;;;;4992859;28;20769;-70
2021/04/18 01:58:55;;;;;;;1.20;0.80;;;;;;;;;;4993106;28;20412;-70
2021/04/18 02:01:21;;;;;;;1.93;1.13;;;;;;;;;;4991858;28;20464;-69
2021/04/18 02:03:47;;;;;;;1.30;0.80;;;;;;;;;;4993049;28;20401;-69
2021/04/18 02:06:13;;;;;;;1.20;0.60;;;;;;;;;;4992909;28;20459;-69
2021/04/18 02:08:39;;;;;;;2.70;1.73;;;;;;;;;;5001675;28;20453;-70
2021/04/18 02:11:05;;;;;;;0.80;0.80;;;;;;;;;;4991940;28;20442;-68
2021/04/18 02:13:31;;;;;;;1.20;1.10;;;;;;;;;;4991464;28;20418;-69
2021/04/18 02:15:57;;;;;;;5.17;2.70;;;;;;;;;;4993084;28;20499;-68
2021/04/18 02:18:23;;;;;;;0.97;0.70;;;;;;;;;;4991259;28;20525;-70
2021/04/18 02:20:49;;;;;;;1.83;1.07;;;;;;;;;;4991748;28;20479;-70
2021/04/18 02:23:15;;;;;;;1.13;0.77;;;;;;;;;;4992443;28;20405;-69
2021/04/18 02:25:41;;;;;;;1.03;0.93;;;;;;;;;;4992539;28;20470;-70
2021/04/18 02:28:07;;;;;;;1.10;1.00;;;;;;;;;;4992490;28;20412;-71
2021/04/18 02:30:33;;;;;;;1.77;1.23;;;;;;;;;;4992155;28;20775;-70
2021/04/18 02:32:59;;;;;;;0.97;0.87;;;;;;;;;;4991877;28;20955;-70
2021/04/18 02:35:25;;;;;;;4.80;0.90;;;;;;;;;;4992590;28;20444;-70
2021/04/18 02:37:51;;;;;;;0.90;0.70;;;;;;;;;;4992179;28;20424;-72
2021/04/18 02:40:17;;;;;;;2.73;1.53;;;;;;;;;;4991376;28;20837;-71
2021/04/18 02:42:43;;;;;;;1.50;0.97;;;;;;;;;;4991206;28;20423;-72
2021/04/18 02:45:09;;;;;;;1.73;0.97;;;;;;;;;;4992219;28;20490;-72
2021/04/18 02:47:35;;;;;;;1.60;1.10;;;;;;;;;;4991900;28;20486;-70
2021/04/18 02:50:02;;;;;;;2.77;0.80;;;;;;;;;;4991625;28;20458;-71
2021/04/18 02:52:28;;;;;;;8.33;3.90;;;;;;;;;;4991029;28;20833;-72
2021/04/18 02:54:54;;;;;;;2.80;1.33;;;;;;;;;;4989999;28;20435;-69
2021/04/18 02:57:20;;;;;;;1.00;0.83;;;;;;;;;;4992170;28;20411;-70
2021/04/18 02:59:45;;;;;;;1.33;1.23;;;;;;;;;;4991672;28;20853;-71
2021/04/18 03:02:11;;;;;;;1.10;1.00;;;;;;;;;;4990745;28;20507;-72
2021/04/18 03:04:40;;;;;;;0.80;0.67;;;;;;;;;;4991328;28;20485;-70
2021/04/18 03:07:06;;;;;;;0.83;0.70;;;;;;;;;;4995019;28;20436;-70
2021/04/18 03:09:32;;;;;;;0.80;0.60;;;;;;;;;;5001571;28;20830;-71
2021/04/18 03:11:58;;;;;;;0.80;0.60;;;;;;;;;;4990598;28;20571;-71
2021/04/18 03:14:24;;;;;;;2.20;0.90;;;;;;;;;;4991629;28;20490;-71
2021/04/18 03:16:50;;;;;;;1.23;0.83;;;;;;;;;;4991580;28;20416;-71
2021/04/18 03:19:16;;;;;;;63.40;52.30;;;;;;;;;;4991623;28;20481;-73
2021/04/18 03:21:42;;;;;;;1.43;0.60;;;;;;;;;;4990757;28;20585;-73
2021/04/18 03:24:08;;;;;;;0.90;0.60;;;;;;;;;;4991307;28;20430;-69
2021/04/18 03:26:34;;;;;;;0.70;0.60;;;;;;;;;;4993558;28;20406;-71
2021/04/18 03:29:00;;;;;;;1.00;0.90;;;;;;;;;;4991524;28;21109;-71
2021/04/18 03:31:26;;;;;;;0.80;0.80;;;;;;;;;;4990231;28;20451;-71
2021/04/18 03:33:52;;;;;;;1.30;0.70;;;;;;;;;;4991235;28;20415;-70
2021/04/18 03:36:18;;;;;;;472.00;376.07;;;;;;;;;;4991047;28;20413;-71
2021/04/18 03:38:44;;;;;;;113.17;79.30;;;;;;;;;;4991230;28;20408;-70
2021/04/18 03:41:09;;;;;;;38.50;31.27;;;;;;;;;;5011529;23;20960;-64
2021/04/18 03:43:36;;;;;;;0.73;0.60;;;;;;;;;;5024389;28;20422;-66
2021/04/18 03:46:02;;;;;;;2.40;1.97;;;;;;;;;;5030143;28;20739;-67
2021/04/18 03:48:30;;;;;;;1.00;0.90;;;;;;;;;;5030070;28;20428;-65
2021/04/18 03:50:56;;;;;;;0.80;0.60;;;;;;;;;;5027282;28;20521;-64
2021/04/18 03:53:22;;;;;;;0.90;0.63;;;;;;;;;;5010241;28;20768;-66
2021/04/18 03:55:51;;;;;;;1.30;0.73;;;;;;;;;;5010856;28;20750;-66
2021/04/18 03:58:17;;;;;;;0.80;0.73;;;;;;;;;;5010598;28;20494;-67
2021/04/18 04:00:42;;;;;;;0.90;0.67;;;;;;;;;;5006311;28;20419;-66
2021/04/18 04:03:08;;;;;;;0.80;0.50;;;;;;;;;;5009090;28;20421;-66
2021/04/18 04:05:34;;;;;;;1.93;1.37;;;;;;;;;;5010475;28;20541;-67
2021/04/18 04:08:00;;;;;;;0.93;0.60;;;;;;;;;;5012715;28;20412;-66
2021/04/18 04:10:26;;;;;;;0.70;0.50;;;;;;;;;;5017623;28;20471;-66
2021/04/18 04:12:52;;;;;;;1.13;0.77;;;;;;;;;;5011991;28;20418;-66
2021/04/18 04:15:18;;;;;;;1.40;1.10;;;;;;;;;;5005764;28;20459;-65
2021/04/18 04:17:44;;;;;;;2.40;0.63;;;;;;;;;;5012357;28;20452;-67
2021/04/18 04:20:10;;;;;;;2.47;1.20;;;;;;;;;;5012203;28;20425;-66
2021/04/18 04:22:36;;;;;;;0.80;0.60;;;;;;;;;;5010882;28;20444;-66
2021/04/18 04:25:03;;;;;;;1.07;0.97;;;;;;;;;;5002046;28;20453;-66
2021/04/18 04:27:29;;;;;;;2.93;1.27;;;;;;;;;;5011523;28;20442;-66
2021/04/18 04:29:55;;;;;;;0.87;0.63;;;;;;;;;;5006229;28;20848;-66
2021/04/18 04:32:21;;;;;;;1.43;0.80;;;;;;;;;;4990790;28;20947;-66
2021/04/18 04:34:47;;;;;;;0.80;0.60;;;;;;;;;;5003212;28;20420;-68
2021/04/18 04:37:13;;;;;;;0.90;0.70;;;;;;;;;;5004220;28;20410;-66
2021/04/18 04:39:39;;;;;;;1.53;1.20;;;;;;;;;;5007319;28;20418;-65
2021/04/18 04:42:05;;;;;;;1.77;1.67;;;;;;;;;;5004778;28;20928;-66
2021/04/18 04:44:31;;;;;;;3.77;0.90;;;;;;;;;;5005205;28;20477;-66
2021/04/18 04:46:57;;;;;;;1.23;0.90;;;;;;;;;;5008566;28;20421;-65
2021/04/18 04:49:23;;;;;;;2.20;0.63;;;;;;;;;;5009508;28;20450;-67
2021/04/18 04:51:49;;;;;;;0.70;0.53;;;;;;;;;;5007402;28;20958;-64
2021/04/18 04:54:15;;;;;;;1.23;0.77;;;;;;;;;;5008304;28;20450;-67
2021/04/18 04:56:41;;;;;;;1.27;0.70;;;;;;;;;;5012740;28;20394;-68
2021/04/18 04:59:07;;;;;;;1.10;1.00;;;;;;;;;;5012993;28;20418;-69
2021/04/18 05:01:33;;;;;;;3.10;1.17;;;;;;;;;;5011831;28;20853;-67
2021/04/18 05:03:59;;;;;;;2.30;1.63;;;;;;;;;;5013263;28;20413;-67
2021/04/18 05:06:25;;;;;;;0.73;0.50;;;;;;;;;;4995068;28;20431;-67
2021/04/18 05:08:51;;;;;;;1.10;0.80;;;;;;;;;;5008533;28;20425;-68
2021/04/18 05:11:17;;;;;;;0.80;0.67;;;;;;;;;;5000426;28;20491;-67
2021/04/18 05:13:43;;;;;;;2.07;1.87;;;;;;;;;;5013682;28;20439;-68
2021/04/18 05:16:09;;;;;;;1.10;0.70;;;;;;;;;;5013559;28;20435;-67
2021/04/18 05:18:35;;;;;;;1.57;0.80;;;;;;;;;;5013370;28;20546;-66
2021/04/18 05:21:01;;;;;;;1.00;0.90;;;;;;;;;;5011785;28;20531;-67
2021/04/18 05:23:27;;;;;;;1.17;0.80;;;;;;;;;;5012518;28;20439;-66
2021/04/18 05:25:53;;;;;;;2.50;1.10;;;;;;;;;;5012667;28;20463;-67
2021/04/18 05:28:19;;;;;;;4.50;1.10;;;;;;;;;;5012837;28;20403;-66
2021/04/18 05:30:45;;;;;;;0.97;0.70;;;;;;;;;;5011441;28;20921;-66
2021/04/18 05:33:11;;;;;;;0.90;0.90;;;;;;;;;;5012066;28;20411;-68
2021/04/18 05:35:37;;;;;;;0.80;0.70;;;;;;;;;;5012690;28;20922;-63
2021/04/18 05:38:03;;;;;;;1.10;0.80;;;;;;;;;;5010166;28;20895;-66
2021/04/18 05:40:29;;;;;;;1.13;1.03;;;;;;;;;;5011549;28;20418;-66
2021/04/18 05:42:55;;;;;;;0.90;0.77;;;;;;;;;;5012011;28;20823;-66
2021/04/18 05:45:21;;;;;;;1.20;0.80;;;;;;;;;;5011794;28;20460;-66
2021/04/18 05:47:47;;;;;;;23.37;1.43;;;;;;;;;;5011872;28;20445;-66
2021/04/18 05:50:13;;;;;;;1.13;0.90;;;;;;;;;;5012573;28;20403;-67
2021/04/18 05:52:39;;;;;;;1.33;0.90;;;;;;;;;;5011157;28;20463;-67
2021/04/18 05:55:07;;;;;;;0.70;0.50;;;;;;;;;;5012004;28;20948;-67
2021/04/18 05:57:33;;;;;;;3.33;0.80;;;;;;;;;;5012274;28;20424;-67
2021/04/18 05:59:59;;;;;;;0.73;0.50;;;;;;;;;;5012668;28;20407;-68
2021/04/18 06:02:25;;;;;;;2.43;1.30;;;;;;;;;;5011343;28;20438;-66
2021/04/18 06:04:51;;;;;;;1.77;0.60;;;;;;;;;;5011732;28;20557;-67
2021/04/18 06:07:17;;;;;;;0.73;0.47;;;;;;;;;;5010209;28;20545;-66
2021/04/18 06:09:43;;;;;;;1.20;1.10;;;;;;;;;;5011669;28;20427;-66
2021/04/18 06:12:09;;;;;;;0.80;0.60;;;;;;;;;;5011095;28;20448;-64
2021/04/18 06:14:35;;;;;;;1.90;1.23;;;;;;;;;;5011990;28;20438;-67
2021/04/18 06:17:01;;;;;;;2.10;1.90;;;;;;;;;;5012251;28;20502;-67
2021/04/18 06:19:27;;;;;;;1.10;0.90;;;;;;;;;;5012330;28;20402;-68
2021/04/18 06:21:53;;;;;;;1.10;0.87;;;;;;;;;;5010980;28;20438;-68
2021/04/18 06:24:19;;;;;;;1.23;1.00;;;;;;;;;;5012207;28;20551;-68
2021/04/18 06:26:45;;;;;;;3.17;2.03;;;;;;;;;;5012056;28;20397;-67
2021/04/18 06:29:10;;;;;;;0.80;0.60;;;;;;;;;;5012322;28;20402;-67
2021/04/18 06:31:36;;;;;;;2.60;1.97;;;;;;;;;;5010908;28;20558;-66
2021/04/18 06:34:02;;;;;;;0.90;0.80;;;;;;;;;;5012028;28;20397;-66
2021/04/18 06:36:28;;;;;;;1.03;0.80;;;;;;;;;;5012203;28;20408;-66
2021/04/18 06:38:54;;;;;;;1.20;1.03;;;;;;;;;;5010588;28;20502;-66
2021/04/18 06:41:24;;;;;;;1.30;0.83;;;;;;;;;;5010517;28;20551;-66
2021/04/18 06:43:50;;;;;;;0.80;0.53;;;;;;;;;;5012458;28;20802;-67
2021/04/18 06:46:17;;;;;;;0.80;0.60;;;;;;;;;;5011965;28;20484;-65
2021/04/18 06:48:44;;;;;;;1.00;0.73;;;;;;;;;;5011942;28;20440;-68
2021/04/18 06:51:10;;;;;;;18.13;2.07;;;;;;;;;;5011404;28;20524;-66
2021/04/18 06:53:36;;;;;;;4.53;1.80;;;;;;;;;;5011744;28;20932;-67
2021/04/18 06:56:03;;;;;;;0.80;0.50;;;;;;;;;;5011600;28;20432;-67
2021/04/18 06:58:32;;;;;;;11.27;1.20;;;;;;;;;;5011694;28;20413;-66
2021/04/18 07:01:00;;;;;;;1.30;0.90;;;;;;;;;;5010732;28;20475;-66
2021/04/18 07:03:26;;;;;;;1.00;0.90;;;;;;;;;;5011277;28;20623;-67
2021/04/18 07:05:59;;;;;;;0.83;0.80;;;;;;;;;;5010945;28;20987;-67
2021/04/18 07:08:33;;;;;;;1.40;1.23;;;;;;;;;;5018053;28;20408;-65
2021/04/18 07:11:28;;;;;;;3.53;0.77;;;;;;;;;;5012270;28;20508;-65
2021/04/18 07:13:54;;;;;;;0.73;0.57;;;;;;;;;;4996760;28;20451;-67
2021/04/18 07:16:23;;;;;;;1.70;0.87;;;;;;;;;;5011003;28;20800;-66
2021/04/18 07:18:49;;;;;;;4.93;0.77;;;;;;;;;;4999030;28;20440;-66
2021/04/18 07:21:15;;;;;;;6.47;1.00;;;;;;;;;;5007161;28;20558;-67
2021/04/18 07:23:41;;;;;;;2.60;1.23;;;;;;;;;;5008196;28;20487;-66
2021/04/18 07:26:23;;;;;;;0.83;0.70;;;;;;;;;;5004962;28;20551;-66
2021/04/18 07:28:49;;;;;;;4.23;1.90;;;;;;;;;;4993625;28;20405;-66
2021/04/18 07:31:33;;;;;;;1.33;1.17;;;;;;;;;;5010005;28;20939;-66
2021/04/18 07:34:19;;;;;;;0.80;0.70;;;;;;;;;;5009378;28;20427;-67
2021/04/18 07:36:47;;;;;;;1.80;1.07;;;;;;;;;;5007193;28;21216;-68
2021/04/18 07:39:14;;;;;;;1.93;1.50;;;;;;;;;;5004867;28;20440;-66
2021/04/18 07:41:42;;;;;;;1.17;1.07;;;;;;;;;;5007002;28;20456;-66
2021/04/18 07:44:14;;;;;;;0.90;0.70;;;;;;;;;;5010512;28;20408;-66
2021/04/18 07:46:43;;;;;;;1.60;1.37;;;;;;;;;;5008137;28;20522;-66
2021/04/18 07:49:09;;;;;;;2.60;1.63;;;;;;;;;;4998355;28;20411;-66
2021/04/18 07:51:35;;;;;;;1.40;0.90;;;;;;;;;;4990209;28;20855;-66
2021/04/18 07:54:01;;;;;;;8.53;1.43;;;;;;;;;;5000504;28;20417;-66
2021/04/18 07:56:28;;;;;;;1.20;1.00;;;;;;;;;;5009850;28;20476;-66
2021/04/18 07:58:54;;;;;;;1.93;1.50;;;;;;;;;;5010278;28;20404;-66
2021/04/18 08:01:20;;;;;;;2.30;1.70;;;;;;;;;;5009838;28;20522;-66
2021/04/18 08:03:46;;;;;;;1.60;1.10;;;;;;;;;;5010399;28;20407;-67
2021/04/18 08:06:13;;;;;;;5.03;2.40;;;;;;;;;;5005390;28;20596;-66
2021/04/18 08:08:43;;;;;;;1.77;1.40;;;;;;;;;;5006835;28;20419;-66
2021/04/18 08:11:13;;;;;;;1.93;1.27;;;;;;;;;;5010079;28;20489;-66
2021/04/18 08:13:40;;;;;;;1.10;0.83;;;;;;;;;;5004820;28;20472;-66
2021/04/18 08:16:07;;;;;;;2.83;1.13;;;;;;;;;;5006536;28;20412;-67
2021/04/18 08:18:41;;;;;;;2.80;1.33;;;;;;;;;;5001903;28;20424;-67
2021/04/18 08:21:26;;;;;;;0.80;0.60;;;;;;;;;;5037735;28;20931;-66
2021/04/18 08:23:53;;;;;;;2.00;0.80;;;;;;;;;;5013221;28;20803;-67
2021/04/18 08:26:23;;;;;;;1.00;0.90;;;;;;;;;;5003202;28;20464;-66
2021/04/18 08:28:55;;;;;;;2.10;1.50;;;;;;;;;;5011003;28;20417;-66
2021/04/18 08:31:22;;;;;;;2.80;1.40;;;;;;;;;;5012090;28;20515;-66
2021/04/18 08:33:49;;;;;;;1.47;1.37;;;;;;;;;;5013909;28;20404;-66
2021/04/18 08:36:22;;;;;;;1.50;1.40;;;;;;;;;;5013625;28;20444;-66
2021/04/18 08:39:09;;;;;;;1.93;1.20;;;;;;;;;;5012143;28;20479;-66
2021/04/18 08:41:38;;;;;;;4.80;1.17;;;;;;;;;;5004509;28;20456;-67
2021/04/18 08:44:19;;;;;;;1.20;1.10;;;;;;;;;;5013779;28;20408;-67
2021/04/18 08:46:46;;;;;;;2.20;1.17;;;;;;;;;;5003706;28;20448;-65
2021/04/18 08:49:12;;;;;;;2.83;1.43;;;;;;;;;;5002389;28;20492;-66
2021/04/18 08:51:39;;;;;;;1.60;1.07;;;;;;;;;;4999431;28;20432;-66
2021/04/18 08:54:05;;;;;;;1.77;1.23;;;;;;;;;;5010348;28;20401;-66
2021/04/18 08:56:48;;;;;;;13.17;1.80;;;;;;;;;;4999450;28;20646;-66
2021/04/18 08:59:14;;;;;;;1.97;1.30;;;;;;;;;;5003530;28;20429;-65
2021/04/18 09:01:53;;;;;;;2.20;2.00;;;;;;;;;;5012411;28;20421;-66
2021/04/18 09:04:22;;;;;;;2.93;1.17;;;;;;;;;;5013428;28;20425;-69
2021/04/18 09:06:48;;;;;;;1.73;1.43;;;;;;;;;;5013057;28;20470;-67
2021/04/18 09:09:15;;;;;;;4.17;1.97;;;;;;;;;;5017766;28;20413;-66
2021/04/18 09:11:47;;;;;;;3.30;1.53;;;;;;;;;;5012592;28;20416;-66
2021/04/18 09:14:17;;;;;;;2.37;1.70;;;;;;;;;;5027898;28;20440;-66
2021/04/18 09:16:43;;;;;;;3.57;2.67;;;;;;;;;;5012996;28;20452;-66
2021/04/18 09:19:22;;;;;;;2.23;1.67;;;;;;;;;;5012816;28;20374;-67
2021/04/18 09:21:54;;;;;;;3.30;1.00;;;;;;;;;;5008032;28;20460;-66
2021/04/18 09:24:20;;;;;;;4.20;2.00;;;;;;;;;;4999749;28;20754;-70
2021/04/18 09:26:55;;;;;;;3.53;1.93;;;;;;;;;;5004737;28;20423;-70
2021/04/18 09:29:23;;;;;;;4.03;1.70;;;;;;;;;;5009337;28;20379;-70
2021/04/18 09:31:52;;;;;;;6.47;2.23;;;;;;;;;;5002805;28;20765;-70
2021/04/18 09:34:20;;;;;;;5.33;1.67;;;;;;;;;;5010800;28;20411;-70
2021/04/18 09:36:46;;;;;;;3.50;2.50;;;;;;;;;;5007727;28;20417;-70
2021/04/18 09:39:12;;;;;;;4.20;2.07;;;;;;;;;;5003068;28;20422;-70
2021/04/18 09:41:38;;;;;;;2.53;2.33;;;;;;;;;;5023701;23;20452;-70
2021/04/18 09:44:06;;;;;;;1.30;1.00;;;;;;;;;;5031853;28;20515;-68
2021/04/18 09:46:43;;;;;;;2.80;1.47;;;;;;;;;;5031781;28;20476;-69
2021/04/18 09:49:09;;;;;;;1.30;1.10;;;;;;;;;;5031975;28;20408;-71
2021/04/18 09:51:51;;;;;;;3.50;1.67;;;;;;;;;;5026780;28;20443;-68
2021/04/18 09:54:25;;;;;;;8.93;1.70;;;;;;;;;;5010581;28;20438;-69
2021/04/18 09:57:10;;;;;;;1.07;0.97;;;;;;;;;;5011090;28;20423;-69
2021/04/18 09:59:37;;;;;;;1.87;1.60;;;;;;;;;;5011453;28;20391;-69
2021/04/18 10:02:16;;;;;;;4.73;1.77;;;;;;;;;;5029406;28;20483;-70
2021/04/18 10:04:42;;;;;;;1.77;1.53;;;;;;;;;;5013902;28;20540;-72
2021/04/18 10:07:08;;;;;;;1.73;1.20;;;;;;;;;;5005447;28;20736;-66
2021/04/18 10:09:51;;;;;;;1.33;1.20;;;;;;;;;;5011607;28;20413;-68
2021/04/18 10:12:17;;;;;;;3.13;1.20;;;;;;;;;;5011113;28;20399;-69
2021/04/18 10:14:44;;;;;;;3.43;1.53;;;;;;;;;;5006401;28;20838;-67
2021/04/18 10:17:10;;;;;;;3.40;1.50;;;;;;;;;;5010333;28;20496;-69
2021/04/18 10:19:50;;;;;;;1.83;1.40;;;;;;;;;;5013002;28;20409;-69
2021/04/18 10:22:16;;;;;;;9.00;1.57;;;;;;;;;;5013574;28;20454;-68
2021/04/18 10:24:44;;;;;;;1.40;1.30;;;;;;;;;;5012149;28;20438;-69
2021/04/18 10:27:10;;;;;;;4.40;1.97;;;;;;;;;;5012671;28;20395;-69
2021/04/18 10:29:37;;;;;;;2.10;1.10;;;;;;;;;;5013092;28;20463;-68
2021/04/18 10:32:03;;;;;;;4.30;2.80;;;;;;;;;;5000695;28;20433;-68
2021/04/18 10:34:29;;;;;;;1.97;1.40;;;;;;;;;;5001388;28;20960;-68
2021/04/18 10:36:56;;;;;;;1.77;1.33;;;;;;;;;;5013325;28;20496;-68
2021/04/18 10:39:22;;;;;;;2.17;1.20;;;;;;;;;;5012945;28;20921;-70
2021/04/18 10:41:49;;;;;;;1.90;1.40;;;;;;;;;;5025594;28;20450;-69
2021/04/18 10:44:18;;;;;;;1.47;1.33;;;;;;;;;;5031905;28;20388;-67
2021/04/18 10:46:51;;;;;;;2.37;1.53;;;;;;;;;;5013548;28;20522;-68
2021/04/18 10:49:17;;;;;;;1.40;1.30;;;;;;;;;;4998743;28;20759;-67
2021/04/18 10:51:43;;;;;;;2.07;1.50;;;;;;;;;;5006344;28;20485;-68
2021/04/18 10:54:09;;;;;;;1.53;1.37;;;;;;;;;;5013659;28;20483;-68
2021/04/18 10:56:36;;;;;;;1.20;1.10;;;;;;;;;;5012479;28;20548;-69
2021/04/18 10:59:02;;;;;;;1.77;1.40;;;;;;;;;;5012727;28;20535;-70
2021/04/18 11:01:28;;;;;;;1.53;1.43;;;;;;;;;;5012658;28;20371;-69
2021/04/18 11:03:54;;;;;;;1.63;1.53;;;;;;;;;;5010083;28;20390;-69
2021/04/18 11:06:22;;;;;;;2.40;1.40;;;;;;;;;;5012447;28;20452;-69
2021/04/18 11:08:48;;;;;;;2.80;1.63;;;;;;;;;;5013664;28;20400;-68
2021/04/18 11:11:14;;;;;;;5.60;2.80;;;;;;;;;;5012473;28;20895;-68
2021/04/18 11:13:40;;;;;;;2.50;1.50;;;;;;;;;;5011639;28;20421;-67
2021/04/18 11:16:06;;;;;;;1.87;1.33;;;;;;;;;;5012653;28;20739;-69
2021/04/18 11:18:32;;;;;;;1.87;1.43;;;;;;;;;;5012245;28;20419;-68
2021/04/18 11:20:58;;;;;;;1.37;1.27;;;;;;;;;;5011584;28;20384;-68
2021/04/18 11:23:24;;;;;;;2.27;2.00;;;;;;;;;;5011681;28;20429;-69
2021/04/18 11:25:50;;;;;;;3.37;2.20;;;;;;;;;;5011447;28;20488;-69
2021/04/18 11:28:19;;;;;;;2.53;2.10;;;;;;;;;;5012012;28;21041;-69
2021/04/18 11:30:45;;;;;;;3.03;1.83;;;;;;;;;;5011726;28;20432;-68
2021/04/18 11:33:11;;;;;;;4.63;2.83;;;;;;;;;;5011978;28;20910;-68
2021/04/18 11:35:37;;;;;;;3.97;3.00;;;;;;;;;;5011654;28;20406;-70
2021/04/18 11:38:03;;;;;;;5.40;2.53;;;;;;;;;;5011680;28;20440;-69
2021/04/18 11:40:30;;;;;;;4.70;1.30;;;;;;;;;;5011918;28;20901;-69
2021/04/18 11:42:56;;;;;;;2.57;2.07;;;;;;;;;;5011675;28;20452;-69
2021/04/18 11:45:22;;;;;;;2.30;1.87;;;;;;;;;;5011606;28;20437;-69
2021/04/18 11:47:48;;;;;;;2.83;1.67;;;;;;;;;;5022536;28;20386;-69
2021/04/18 11:50:15;;;;;;;9.43;2.30;;;;;;;;;;5018261;28;20834;-68
2021/04/18 11:52:41;;;;;;;1.90;1.57;;;;;;;;;;5025704;28;20459;-69
2021/04/18 11:55:11;;;;;;;5.57;3.40;;;;;;;;;;5011446;28;20412;-69
2021/04/18 11:57:37;;;;;;;3.00;2.03;;;;;;;;;;5012816;28;20391;-69
2021/04/18 12:00:04;;;;;;;4.20;1.90;;;;;;;;;;5009456;28;20893;-69
2021/04/18 12:02:30;;;;;;;18.53;3.00;;;;;;;;;;5015292;28;20873;-70
2021/04/18 12:04:56;;;;;;;66.73;5.63;;;;;;;;;;5014961;28;20446;-69
2021/04/18 12:07:22;;;;;;;41.55;7.75;;;;;;;;;;5013606;28;20883;-67
2021/04/18 12:09:48;;;;;;;3.87;2.40;;;;;;;;;;5015670;28;20174;-69
2021/04/18 12:12:14;;;;;;;18.83;1.63;;;;;;;;;;5012302;28;20894;-73
2021/04/18 12:14:40;;;;;;;2.10;1.80;;;;;;;;;;5014535;28;20404;-69
2021/04/18 12:17:06;;;;;;;9.40;3.70;;;;;;;;;;5024076;28;20496;-69
2021/04/18 12:19:32;;;;;;;2.80;1.70;;;;;;;;;;5016868;28;20404;-69
2021/04/18 12:21:58;;;;;;;2.33;2.13;;;;;;;;;;5018475;28;20404;-69
2021/04/18 12:24:24;;;;;;;3.87;1.57;;;;;;;;;;5026160;28;20431;-67
2021/04/18 12:26:49;;;;;;;1.73;1.63;;;;;;;;;;5026868;28;20752;-69
2021/04/18 12:29:16;;;;;;;22.52;17.65;;;;;;;;;;5014428;28;20435;-69
2021/04/18 12:31:41;;;;;;;5.60;2.13;;;;;;;;;;5020284;28;20387;-69
2021/04/18 12:34:08;;;;;;;2.43;1.60;;;;;;;;;;5022857;28;20172;-67
2021/04/18 12:36:36;;;;;;;6.63;2.80;;;;;;;;;;5029253;28;20394;-68
2021/04/18 12:39:02;;;;;;;1.43;1.30;;;;;;;;;;5014072;28;20482;-69
2021/04/18 12:41:28;;;;;;;2.33;1.80;;;;;;;;;;5022709;28;20493;-69
2021/04/18 12:43:54;;;;;;;4.13;2.00;;;;;;;;;;5020954;28;20424;-69
2021/04/18 12:46:20;;;;;;;1.70;1.60;;;;;;;;;;5028638;28;20455;-69
2021/04/18 12:48:47;;;;;;;3.90;1.97;;;;;;;;;;5014933;28;20384;-69
2021/04/18 12:51:13;;;;;;;5.23;3.23;;;;;;;;;;5025399;28;20384;-69
2021/04/18 12:53:39;;;;;;;1.67;1.57;;;;;;;;;;5019077;28;20447;-69
2021/04/18 12:56:05;;;;;;;2.90;1.70;;;;;;;;;;5029757;28;20398;-70
2021/04/18 12:58:31;;;;;;;2.13;1.47;;;;;;;;;;5015250;28;20425;-68
2021/04/18 13:00:57;;;;;;;1.60;1.50;;;;;;;;;;5010223;28;21008;-69
2021/04/18 13:03:23;;;;;;;3.07;1.87;;;;;;;;;;5015302;28;20495;-70
2021/04/18 13:05:52;;;;;;;1.60;1.50;;;;;;;;;;5013863;28;20452;-70
2021/04/18 13:08:18;;;;;;;2.13;1.63;;;;;;;;;;5014281;28;20397;-72
2021/04/18 13:10:44;;;;;;;3.33;2.60;;;;;;;;;;5021060;28;20950;-69
2021/04/18 13:13:11;;;;;;;1.90;1.10;;;;;;;;;;5024633;28;20399;-69
2021/04/18 13:15:37;;;;;;;3.23;1.50;;;;;;;;;;5021616;28;20420;-70
2021/04/18 13:18:03;;;;;;;1.93;1.67;;;;;;;;;;5015741;28;20405;-69
2021/04/18 13:20:29;;;;;;;3.00;2.23;;;;;;;;;;5015127;28;20412;-69
2021/04/18 13:22:55;;;;;;;1.63;1.30;;;;;;;;;;5015813;28;20411;-70
2021/04/18 13:25:21;;;;;;;6.00;1.73;;;;;;;;;;5015877;28;20486;-69
2021/04/18 13:27:47;;;;;;;3.33;1.97;;;;;;;;;;5017278;28;20405;-69
2021/04/18 13:30:14;;;;;;;1.77;1.67;;;;;;;;;;5017887;28;20462;-68
2021/04/18 13:32:40;;;;;;;2.40;2.07;;;;;;;;;;5032643;28;20526;-69
2021/04/18 13:35:07;;;;;;;2.30;1.50;;;;;;;;;;5024672;28;20395;-69
2021/04/18 13:37:33;;;;;;;1.53;1.27;;;;;;;;;;5013278;28;20432;-70
2021/04/18 13:40:00;;;;;;;2.83;1.20;;;;;;;;;;5013003;28;21059;-69
2021/04/18 13:42:26;;;;;;;3.30;1.27;;;;;;;;;;5012683;28;20502;-69
2021/04/18 13:44:52;;;;;;;1.90;1.40;;;;;;;;;;5012605;28;20948;-70
2021/04/18 13:47:17;;;;;;;3.50;1.73;;;;;;;;;;4995848;28;20921;-70
2021/04/18 13:49:43;;;;;;;5.70;1.90;;;;;;;;;;4994165;28;20409;-69
2021/04/18 13:52:09;;;;;;;96.63;86.23;;;;;;;;;;5006607;28;20782;-68
2021/04/18 13:54:35;;;;;;;3.30;1.90;;;;;;;;;;5012043;28;20395;-69
2021/04/18 13:57:04;;;;;;;3.73;2.23;;;;;;;;;;5010456;28;20409;-68
2021/04/18 13:59:30;;;;;;;2.83;2.07;;;;;;;;;;5007552;28;20828;-69
2021/04/18 14:01:56;;;;;;;2.30;1.33;;;;;;;;;;5001440;28;20493;-70
2021/04/18 14:04:22;;;;;;;3.83;1.60;;;;;;;;;;5003381;28;20419;-68
2021/04/18 14:06:48;;;;;;;3.13;1.93;;;;;;;;;;5001076;28;20794;-69
2021/04/18 14:09:14;;;;;;;3.90;2.13;;;;;;;;;;5001764;28;20414;-70
2021/04/18 14:11:40;;;;;;;1.70;1.30;;;;;;;;;;4998784;28;20448;-69
2021/04/18 14:14:05;;;;;;;1.70;1.47;;;;;;;;;;5005139;28;20424;-70
2021/04/18 14:16:31;;;;;;;4.70;2.17;;;;;;;;;;5003001;28;20515;-69
2021/04/18 14:18:57;;;;;;;2.00;1.60;;;;;;;;;;5001535;28;20454;-70
2021/04/18 14:21:23;;;;;;;2.30;1.57;;;;;;;;;;5000313;28;20419;-67
2021/04/18 14:23:49;;;;;;;2.50;1.53;;;;;;;;;;4999100;28;20426;-69
2021/04/18 14:26:16;;;;;;;1.00;0.77;;;;;;;;;;5001638;28;20680;-69
2021/04/18 14:28:42;;;;;;;2.00;1.40;;;;;;;;;;5002839;28;20418;-69
2021/04/18 14:31:09;;;;;;;1.73;1.40;;;;;;;;;;5001988;28;20425;-68
2021/04/18 14:33:35;;;;;;;215.73;196.63;;;;;;;;;;5000067;28;20415;-68
2021/04/18 14:36:01;;;;;;;133.83;120.07;;;;;;;;;;4998696;28;20432;-69
2021/04/18 14:38:30;;;;;;;2.20;2.00;;;;;;;;;;5010089;28;20805;-70
2021/04/18 14:40:56;;;;;;;2.03;1.73;;;;;;;;;;5009615;28;20413;-68